Time;durP1;ratioP1;P1;durP2;ratioP2;P2;SDS_P1;SDS_P2;PMS_P1;PMS_P2;Temp;Humidity;BMP_temperature;BMP_pressure;BME280_temperature;BME280_humidity;BME280_pressure;Samples;Min_cycle;Max_cycle;Signal;HPM_P1;HPM_P2
2021/03/08 00:00:36;;;;;;;32.90;16.65;;;-1.20;96.00;;;;;;5012649;28;20022;-78
2021/03/08 00:03:03;;;;;;;34.03;15.95;;;-1.20;96.10;;;;;;5014461;28;20037;-78
2021/03/08 00:05:29;;;;;;;34.20;16.08;;;-1.30;95.70;;;;;;5014415;28;20026;-77
2021/03/08 00:07:54;;;;;;;31.77;16.30;;;-1.30;95.80;;;;;;5014185;28;20037;-79
2021/03/08 00:10:21;;;;;;;37.67;16.20;;;-1.30;95.70;;;;;;5014475;28;20037;-78
2021/03/08 00:12:48;;;;;;;31.67;15.70;;;-1.30;95.30;;;;;;5014339;28;20022;-78
2021/03/08 00:15:14;;;;;;;32.33;15.55;;;-1.30;95.70;;;;;;5013997;28;20026;-78
2021/03/08 00:17:41;;;;;;;35.15;15.15;;;-1.30;95.40;;;;;;5014157;28;20030;-78
2021/03/08 00:20:12;;;;;;;33.67;15.10;;;-1.30;95.40;;;;;;5029494;28;20080;-77
2021/03/08 00:22:39;;;;;;;32.63;14.60;;;-1.30;95.20;;;;;;5028970;28;20030;-78
2021/03/08 00:25:07;;;;;;;29.30;15.93;;;-1.30;95.00;;;;;;5029288;28;20030;-78
2021/03/08 00:27:33;;;;;;;33.53;14.65;;;-1.30;95.40;;;;;;5013440;28;20490;-78
2021/03/08 00:29:59;;;;;;;35.63;16.70;;;-1.30;95.60;;;;;;5012471;28;20029;-78
2021/03/08 00:32:24;;;;;;;30.05;13.38;;;-1.30;95.40;;;;;;5014130;28;20112;-80
2021/03/08 00:34:50;;;;;;;30.77;14.82;;;-1.30;95.50;;;;;;5012854;28;20124;-79
2021/03/08 00:37:16;;;;;;;29.25;15.38;;;-1.30;95.40;;;;;;5013994;28;20053;-79
2021/03/08 00:39:42;;;;;;;30.50;15.32;;;-1.30;95.30;;;;;;5013772;28;20047;-78
2021/03/08 00:42:07;;;;;;;27.60;14.82;;;-1.30;95.50;;;;;;5029140;28;20029;-79
2021/03/08 00:44:33;;;;;;;33.53;16.15;;;-1.30;95.70;;;;;;5028656;28;20026;-78
2021/03/08 00:46:59;;;;;;;27.67;15.07;;;-1.30;95.80;;;;;;5012883;28;20018;-78
2021/03/08 00:49:24;;;;;;;32.67;15.98;;;-1.40;96.00;;;;;;5013696;28;20029;-78
2021/03/08 00:51:50;;;;;;;31.80;15.80;;;-1.40;97.30;;;;;;5028456;28;20521;-79
2021/03/08 00:54:16;;;;;;;31.30;15.60;;;-1.40;96.30;;;;;;5013433;28;20029;-78
2021/03/08 00:56:41;;;;;;;31.92;15.63;;;-1.40;96.80;;;;;;5013275;28;20464;-78
2021/03/08 00:59:07;;;;;;;31.38;15.57;;;-1.40;96.00;;;;;;5012801;28;20037;-78
2021/03/08 01:01:33;;;;;;;28.60;14.73;;;-1.40;95.30;;;;;;5013165;28;20388;-78
2021/03/08 01:03:59;;;;;;;24.08;14.90;;;-1.40;94.80;;;;;;5013318;28;20026;-78
2021/03/08 01:06:24;;;;;;;31.15;14.85;;;-1.50;95.00;;;;;;5013541;28;20479;-77
2021/03/08 01:08:50;;;;;;;33.67;14.52;;;-1.40;95.20;;;;;;5011162;28;20060;-77
2021/03/08 01:11:16;;;;;;;28.83;14.05;;;-1.50;94.90;;;;;;5013479;28;20387;-78
2021/03/08 01:13:41;;;;;;;30.17;14.98;;;-1.50;94.70;;;;;;5028474;28;20104;-77
2021/03/08 01:16:07;;;;;;;29.92;15.30;;;-1.40;95.00;;;;;;5011951;28;20025;-78
2021/03/08 01:18:33;;;;;;;35.28;14.77;;;-1.50;95.50;;;;;;5011771;28;20064;-77
2021/03/08 01:20:58;;;;;;;26.75;14.80;;;-1.40;95.90;;;;;;5012066;28;20018;-78
2021/03/08 01:23:24;;;;;;;31.05;15.52;;;-1.40;96.00;;;;;;5027812;28;20029;-78
2021/03/08 01:25:50;;;;;;;32.70;15.90;;;-1.40;96.10;;;;;;5012395;28;21000;-78
2021/03/08 01:28:16;;;;;;;30.05;16.00;;;-1.40;95.70;;;;;;5011621;28;20530;-79
2021/03/08 01:30:44;;;;;;;30.90;15.50;;;-1.40;96.70;;;;;;5013076;28;20030;-77
2021/03/08 01:33:10;;;;;;;27.05;15.88;;;-1.30;96.50;;;;;;5011963;28;20041;-78
2021/03/08 01:35:37;;;;;;;28.95;14.50;;;-1.30;96.40;;;;;;5028079;28;20030;-78
2021/03/08 01:38:04;;;;;;;25.38;15.15;;;-1.40;96.10;;;;;;5011861;28;20376;-78
2021/03/08 01:40:31;;;;;;;24.52;14.65;;;-1.30;96.00;;;;;;5013092;28;20034;-78
2021/03/08 01:42:57;;;;;;;26.48;13.90;;;-1.30;96.80;;;;;;5013168;28;20069;-78
2021/03/08 01:45:24;;;;;;;26.20;15.15;;;-1.30;96.60;;;;;;5013009;28;20065;-78
2021/03/08 01:47:51;;;;;;;22.98;13.57;;;-1.20;95.50;;;;;;5012940;28;20026;-78
2021/03/08 01:50:28;;;;;;;23.40;13.30;;;-1.20;95.00;;;;;;5012877;28;20026;-78
2021/03/08 01:52:55;;;;;;;27.38;13.77;;;-1.20;93.20;;;;;;5028168;28;20113;-78
2021/03/08 01:55:22;;;;;;;29.50;13.75;;;-1.20;93.80;;;;;;5011966;28;20041;-78
2021/03/08 01:57:48;;;;;;;32.35;14.45;;;-1.20;93.90;;;;;;5012409;28;20022;-77
2021/03/08 02:00:14;;;;;;;24.77;13.48;;;-1.10;93.30;;;;;;5012934;28;20032;-78
2021/03/08 02:02:42;;;;;;;26.13;13.57;;;-1.10;93.80;;;;;;5012921;28;20108;-79
2021/03/08 02:05:09;;;;;;;24.77;13.05;;;-1.10;93.00;;;;;;5012824;28;20426;-78
2021/03/08 02:07:35;;;;;;;25.88;13.27;;;-1.10;92.40;;;;;;5027724;28;20384;-78
2021/03/08 02:10:04;;;;;;;29.67;13.88;;;-1.10;92.10;;;;;;5012532;28;20100;-78
2021/03/08 02:12:48;;;;;;;29.20;13.98;;;-1.10;92.60;;;;;;5012826;28;20033;-78
2021/03/08 02:15:32;;;;;;;31.20;15.02;;;-1.20;91.70;;;;;;5012800;28;20030;-78
2021/03/08 02:18:06;;;;;;;29.77;14.55;;;-1.10;92.30;;;;;;5012711;28;20399;-78
2021/03/08 02:21:11;;;;;;;32.05;15.98;;;-1.10;93.50;;;;;;5012662;28;20526;-78
2021/03/08 02:24:10;;;;;;;31.85;15.38;;;-1.10;94.00;;;;;;5006396;28;20089;-78
2021/03/08 02:26:52;;;;;;;28.40;14.73;;;-1.10;93.60;;;;;;5013036;28;20030;-78
2021/03/08 02:29:48;;;;;;;26.15;13.38;;;-1.10;93.40;;;;;;5011993;28;20591;-78
2021/03/08 02:32:17;;;;;;;31.75;15.48;;;-1.20;93.60;;;;;;5027553;28;20491;-78
2021/03/08 02:35:05;;;;;;;34.22;16.33;;;-1.20;93.80;;;;;;5027363;28;20026;-77
2021/03/08 02:37:39;;;;;;;35.53;16.08;;;-1.20;95.20;;;;;;4995647;28;20110;-77
2021/03/08 02:40:11;;;;;;;33.00;15.13;;;-1.20;94.90;;;;;;5016273;28;20022;-77
2021/03/08 02:42:40;;;;;;;30.30;15.85;;;-1.20;95.20;;;;;;5016124;28;20071;-78
2021/03/08 02:45:09;;;;;;;33.53;15.35;;;-1.20;95.40;;;;;;5015990;28;20040;-78
2021/03/08 02:47:41;;;;;;;33.05;18.85;;;-1.20;95.60;;;;;;5014731;28;20109;-78
2021/03/08 02:50:08;;;;;;;33.85;16.85;;;-1.20;95.40;;;;;;5014415;28;20022;-78
2021/03/08 02:52:36;;;;;;;31.42;17.15;;;-1.20;95.60;;;;;;5015463;28;20052;-77
2021/03/08 02:55:04;;;;;;;31.90;17.55;;;-1.20;95.60;;;;;;5007556;28;20503;-77
2021/03/08 02:57:38;;;;;;;34.38;16.48;;;-1.20;95.80;;;;;;5014677;28;20021;-78
2021/03/08 03:00:10;;;;;;;39.15;18.25;;;-1.20;96.30;;;;;;5031023;28;20025;-77
2021/03/08 03:02:39;;;;;;;35.38;17.58;;;-1.20;97.00;;;;;;5015405;28;20439;-78
2021/03/08 03:05:10;;;;;;;40.25;17.55;;;-1.20;96.10;;;;;;5015495;28;20045;-77
2021/03/08 03:07:38;;;;;;;34.28;17.05;;;-1.10;96.60;;;;;;5013895;28;20472;-78
2021/03/08 03:10:06;;;;;;;37.40;18.00;;;-1.10;96.50;;;;;;5014260;28;20415;-78
2021/03/08 03:12:34;;;;;;;38.03;17.70;;;-1.10;96.00;;;;;;5014795;28;20026;-78
2021/03/08 03:15:01;;;;;;;41.75;18.38;;;-1.10;95.90;;;;;;5013919;28;20038;-77
2021/03/08 03:17:28;;;;;;;34.55;17.58;;;-1.10;95.70;;;;;;5014015;28;20032;-78
2021/03/08 03:19:57;;;;;;;45.75;19.95;;;-1.20;96.00;;;;;;5015242;28;20029;-77
2021/03/08 03:22:25;;;;;;;38.67;16.35;;;-1.10;95.70;;;;;;5013862;28;20033;-77
2021/03/08 03:24:55;;;;;;;43.65;19.67;;;-1.20;96.20;;;;;;5030558;28;20034;-78
2021/03/08 03:27:22;;;;;;;37.15;20.17;;;-1.20;97.40;;;;;;5030486;28;20454;-78
2021/03/08 03:29:50;;;;;;;48.38;19.75;;;-1.20;98.20;;;;;;5013651;28;20487;-78
2021/03/08 03:32:17;;;;;;;48.85;21.52;;;-1.10;98.90;;;;;;5015355;28;20026;-78
2021/03/08 03:34:45;;;;;;;74.03;31.10;;;-1.10;99.30;;;;;;5015011;28;20054;-77
2021/03/08 03:37:14;;;;;;;67.85;29.90;;;-1.10;99.40;;;;;;5015119;28;20080;-78
2021/03/08 03:39:41;;;;;;;66.80;25.98;;;-1.10;99.30;;;;;;5027781;28;20037;-79
2021/03/08 03:42:07;;;;;;;41.53;17.90;;;-1.10;99.30;;;;;;5008121;28;20018;-79
2021/03/08 03:44:33;;;;;;;38.60;19.08;;;-1.10;99.80;;;;;;5029944;28;20030;-79
2021/03/08 03:46:59;;;;;;;40.63;21.27;;;-1.10;99.80;;;;;;5014916;28;20056;-79
2021/03/08 03:49:24;;;;;;;44.72;20.58;;;-1.10;99.90;;;;;;5029039;28;20026;-79
2021/03/08 03:51:50;;;;;;;51.40;20.33;;;-1.10;99.90;;;;;;5014571;28;20038;-79
2021/03/08 03:54:16;;;;;;;39.75;19.05;;;-1.10;99.70;;;;;;5029033;28;20041;-78
2021/03/08 03:56:52;;;;;;;36.72;18.88;;;-1.10;99.90;;;;;;5014355;28;20022;-78
2021/03/08 03:59:22;;;;;;;42.28;20.25;;;-1.10;99.90;;;;;;5013128;28;20028;-78
2021/03/08 04:01:59;;;;;;;41.97;20.40;;;-1.10;99.90;;;;;;5014629;28;20022;-79
2021/03/08 04:04:39;;;;;;;40.85;19.35;;;-1.10;99.90;;;;;;5013190;28;20025;-78
2021/03/08 04:07:07;;;;;;;48.15;22.23;;;-1.10;99.90;;;;;;5013308;28;20105;-78
2021/03/08 04:09:35;;;;;;;40.42;19.05;;;-1.10;99.90;;;;;;5012860;28;20029;-77
2021/03/08 04:12:02;;;;;;;54.97;23.13;;;-1.10;99.90;;;;;;5014410;28;20080;-77
2021/03/08 04:14:33;;;;;;;51.35;24.27;;;-1.10;99.90;;;;;;5029555;28;20036;-77
2021/03/08 04:16:59;;;;;;;54.25;25.15;;;-1.00;99.90;;;;;;5014212;28;20018;-77
2021/03/08 04:19:30;;;;;;;42.90;23.20;;;-1.00;99.90;;;;;;5014249;28;20034;-77
2021/03/08 04:22:04;;;;;;;43.85;20.20;;;-1.10;99.90;;;;;;5014346;28;20422;-77
2021/03/08 04:24:32;;;;;;;44.63;21.35;;;-1.10;99.90;;;;;;5013952;28;20038;-77
2021/03/08 04:27:06;;;;;;;45.17;21.50;;;-1.10;99.90;;;;;;5029342;28;20053;-78
2021/03/08 04:29:41;;;;;;;58.33;24.52;;;-1.20;99.90;;;;;;5012593;28;20057;-78
2021/03/08 04:32:09;;;;;;;53.88;23.13;;;-1.10;99.90;;;;;;5014097;28;20054;-78
2021/03/08 04:34:36;;;;;;;41.60;20.38;;;-1.10;99.90;;;;;;5013737;28;20085;-78
2021/03/08 04:37:04;;;;;;;63.92;25.63;;;-1.20;99.90;;;;;;5012742;28;20022;-79
2021/03/08 04:39:33;;;;;;;59.15;25.15;;;-1.10;99.90;;;;;;5013064;28;20105;-78
2021/03/08 04:42:00;;;;;;;50.45;23.17;;;-1.20;99.90;;;;;;5013893;28;20476;-77
2021/03/08 04:44:26;;;;;;;39.95;20.25;;;-1.20;99.90;;;;;;5013596;28;20034;-77
2021/03/08 04:46:52;;;;;;;66.13;27.90;;;-1.20;99.90;;;;;;5013826;28;20025;-77
2021/03/08 04:49:19;;;;;;;55.00;24.17;;;-1.20;99.90;;;;;;5012148;28;20064;-78
2021/03/08 04:51:49;;;;;;;52.92;23.35;;;-1.20;99.90;;;;;;5028818;28;20056;-77
2021/03/08 04:54:17;;;;;;;56.72;24.10;;;-1.20;99.90;;;;;;5012543;28;20029;-78
2021/03/08 04:56:44;;;;;;;60.33;25.75;;;-1.20;99.90;;;;;;5011521;28;20064;-78
2021/03/08 04:59:11;;;;;;;58.72;24.80;;;-1.20;99.90;;;;;;5028504;28;20022;-78
2021/03/08 05:01:39;;;;;;;51.35;24.90;;;-1.20;99.90;;;;;;5027790;28;20124;-78
2021/03/08 05:04:08;;;;;;;55.05;23.67;;;-1.10;99.90;;;;;;5028320;28;20460;-78
2021/03/08 05:06:41;;;;;;;44.58;21.35;;;-1.20;99.90;;;;;;5012174;28;20025;-78
2021/03/08 05:09:12;;;;;;;48.42;23.63;;;-1.10;99.90;;;;;;5012287;28;20076;-78
2021/03/08 05:11:39;;;;;;;45.90;21.10;;;-1.10;99.90;;;;;;5013114;28;20033;-78
2021/03/08 05:14:08;;;;;;;59.47;27.17;;;-1.10;99.90;;;;;;5028488;28;20033;-78
2021/03/08 05:16:39;;;;;;;56.92;25.15;;;-1.10;99.90;;;;;;5028561;28;20438;-77
2021/03/08 05:19:05;;;;;;;54.97;24.88;;;-1.10;99.90;;;;;;5013645;28;20057;-78
2021/03/08 05:21:33;;;;;;;53.55;21.95;;;-1.10;99.90;;;;;;5013370;28;20057;-78
2021/03/08 05:24:00;;;;;;;50.28;24.42;;;-1.10;99.90;;;;;;5028083;28;20421;-78
2021/03/08 05:26:27;;;;;;;57.85;25.75;;;-1.10;99.90;;;;;;5012593;28;20022;-78
2021/03/08 05:28:57;;;;;;;54.83;25.75;;;-1.10;99.90;;;;;;5011537;28;20489;-78
2021/03/08 05:31:28;;;;;;;56.03;26.83;;;-1.10;99.90;;;;;;5013242;28;20052;-78
2021/03/08 05:33:58;;;;;;;95.47;36.08;;;-1.10;99.90;;;;;;5012537;28;20038;-78
2021/03/08 05:36:24;;;;;;;116.93;45.08;;;-1.20;99.90;;;;;;5013208;28;20487;-78
2021/03/08 05:38:51;;;;;;;99.65;40.67;;;-1.10;99.90;;;;;;5028218;28;20117;-79
2021/03/08 05:41:22;;;;;;;138.95;52.35;;;-1.10;99.90;;;;;;5028076;28;20033;-78
2021/03/08 05:43:49;;;;;;;48.00;22.70;;;-1.10;99.90;;;;;;5012811;28;20046;-78
2021/03/08 05:46:34;;;;;;;98.30;38.83;;;-1.20;99.90;;;;;;5028192;28;20116;-78
2021/03/08 05:49:38;;;;;;;87.80;36.30;;;-1.10;99.90;;;;;;5013045;28;20534;-78
2021/03/08 05:52:34;;;;;;;77.32;35.38;;;-1.10;99.90;;;;;;5028387;28;20475;-78
2021/03/08 05:55:30;;;;;;;116.43;48.13;;;-1.10;99.90;;;;;;5027035;28;20035;-78
2021/03/08 05:58:26;;;;;;;67.82;31.13;;;-1.20;99.90;;;;;;5012776;28;20105;-78
2021/03/08 06:01:02;;;;;;;70.55;28.10;;;-1.10;99.90;;;;;;5027859;28;20045;-78
2021/03/08 06:04:04;;;;;;;86.35;34.78;;;-1.10;99.90;;;;;;5028118;28;20026;-77
2021/03/08 06:06:50;;;;;;;69.82;30.52;;;-1.10;99.90;;;;;;5012886;28;20495;-79
2021/03/08 06:09:26;;;;;;;75.93;32.55;;;-1.20;99.90;;;;;;5011588;28;20026;-78
2021/03/08 06:12:06;;;;;;;78.88;34.58;;;-1.10;99.90;;;;;;5028145;28;20087;-79
2021/03/08 06:14:40;;;;;;;93.70;43.60;;;-1.10;99.90;;;;;;5032990;28;20048;-78
2021/03/08 06:17:10;;;;;;;85.10;37.67;;;-1.10;99.90;;;;;;5014853;28;20018;-77
2021/03/08 06:19:38;;;;;;;95.90;39.58;;;-1.00;99.90;;;;;;5015171;28;20587;-76
2021/03/08 06:22:08;;;;;;;78.53;35.55;;;-1.00;99.90;;;;;;5016345;28;20100;-77
2021/03/08 06:24:39;;;;;;;81.28;35.88;;;-1.00;99.90;;;;;;5014966;28;20030;-77
2021/03/08 06:27:09;;;;;;;68.40;29.52;;;-1.00;99.90;;;;;;5015533;28;20488;-77
2021/03/08 06:29:37;;;;;;;86.32;42.15;;;-1.00;99.90;;;;;;5016153;28;20480;-77
2021/03/08 06:32:07;;;;;;;63.85;30.23;;;-1.00;99.90;;;;;;5016175;28;20060;-78
2021/03/08 06:34:34;;;;;;;78.72;35.33;;;-1.00;99.90;;;;;;5031398;28;20037;-77
2021/03/08 06:37:06;;;;;;;88.80;40.08;;;-0.90;99.90;;;;;;5016194;28;20113;-77
2021/03/08 06:39:36;;;;;;;107.50;50.05;;;-0.90;99.90;;;;;;5014817;28;20555;-78
2021/03/08 06:42:03;;;;;;;88.35;40.28;;;-0.90;99.90;;;;;;5016175;28;20467;-77
2021/03/08 06:44:29;;;;;;;88.18;37.53;;;-0.80;99.90;;;;;;5011378;28;20057;-77
2021/03/08 06:46:56;;;;;;;120.72;45.22;;;-0.70;99.90;;;;;;5013736;28;20475;-78
2021/03/08 06:49:22;;;;;;;116.00;46.15;;;-0.70;99.90;;;;;;5029939;28;20022;-78
2021/03/08 06:52:13;;;;;;;79.13;33.28;;;-0.60;99.90;;;;;;5009421;28;20018;-79
2021/03/08 06:54:41;;;;;;;120.15;47.78;;;-0.60;99.90;;;;;;5010275;28;20097;-80
2021/03/08 06:57:25;;;;;;;98.80;40.58;;;-0.50;99.90;;;;;;5014435;28;20030;-77
2021/03/08 07:00:08;;;;;;;61.60;29.35;;;-0.40;99.90;;;;;;5027468;28;20018;-76
2021/03/08 07:02:38;;;;;;;60.45;28.58;;;-0.30;99.90;;;;;;5013602;28;20025;-77
2021/03/08 07:05:05;;;;;;;54.60;27.42;;;-0.30;99.90;;;;;;5014050;28;20422;-77
2021/03/08 07:07:50;;;;;;;114.13;44.13;;;-0.20;99.90;;;;;;5017168;28;20099;-78
2021/03/08 07:10:29;;;;;;;116.85;47.58;;;-0.20;99.90;;;;;;5020353;28;20037;-78
2021/03/08 07:12:54;;;;;;;77.20;35.72;;;-0.10;99.90;;;;;;5012256;28;20025;-77
2021/03/08 07:15:20;;;;;;;89.00;33.63;;;0.00;99.90;;;;;;5012771;28;20030;-78
2021/03/08 07:17:46;;;;;;;89.82;35.53;;;0.00;99.90;;;;;;5010694;28;20022;-77
2021/03/08 07:20:14;;;;;;;57.50;25.15;;;0.00;99.90;;;;;;5018022;28;20030;-78
2021/03/08 07:22:50;;;;;;;67.28;30.60;;;-0.20;99.90;;;;;;5015179;28;20116;-78
2021/03/08 07:25:21;;;;;;;77.72;32.63;;;-0.20;99.90;;;;;;5023848;28;20622;-77
2021/03/08 07:27:54;;;;;;;64.60;28.30;;;-0.20;99.90;;;;;;5028738;28;20057;-77
2021/03/08 07:30:29;;;;;;;82.93;29.15;;;-0.10;99.90;;;;;;5008592;28;20030;-78
2021/03/08 07:32:55;;;;;;;78.22;37.78;;;0.00;99.90;;;;;;5012100;28;20437;-77
2021/03/08 07:35:43;;;;;;;68.07;34.10;;;0.10;99.90;;;;;;5024276;28;20168;-80
2021/03/08 07:38:34;;;;;;;37.05;19.20;;;0.10;99.90;;;;;;5011712;28;20412;-79
2021/03/08 07:41:15;;;;;;;39.28;19.02;;;-0.10;99.90;;;;;;5019139;28;20106;-79
2021/03/08 07:43:42;;;;;;;30.33;15.88;;;-0.20;99.90;;;;;;5012099;28;20030;-79
2021/03/08 07:46:26;;;;;;;39.08;17.45;;;-0.10;99.90;;;;;;5012298;28;20037;-79
2021/03/08 07:48:53;;;;;;;55.53;24.92;;;-0.20;99.90;;;;;;5012408;28;20033;-79
2021/03/08 07:51:18;;;;;;;33.60;16.15;;;-0.20;99.90;;;;;;5013738;28;20018;-79
2021/03/08 07:53:44;;;;;;;32.40;18.40;;;-0.10;99.90;;;;;;5011601;28;20125;-80
2021/03/08 07:56:10;;;;;;;39.90;19.20;;;-0.10;99.90;;;;;;5012577;28;20049;-80
2021/03/08 07:58:37;;;;;;;50.20;23.17;;;0.00;99.90;;;;;;5011222;28;20052;-80
2021/03/08 08:01:06;;;;;;;41.65;17.92;;;0.10;99.90;;;;;;5010977;28;21081;-81
2021/03/08 08:03:33;;;;;;;41.58;18.70;;;0.10;99.90;;;;;;5008080;28;20112;-81
2021/03/08 08:06:04;;;;;;;42.50;18.77;;;0.20;99.90;;;;;;5012756;28;20487;-81
2021/03/08 08:08:36;;;;;;;37.72;19.67;;;0.30;99.90;;;;;;5012835;28;20021;-81
2021/03/08 08:11:03;;;;;;;28.88;14.63;;;0.40;99.90;;;;;;5011507;28;20045;-81
2021/03/08 08:13:51;;;;;;;37.88;17.05;;;0.40;96.60;;;;;;5011058;28;20407;-80
2021/03/08 08:16:21;;;;;;;48.17;21.80;;;0.30;97.10;;;;;;5027812;28;20387;-80
2021/03/08 08:18:49;;;;;;;50.55;22.33;;;0.40;99.00;;;;;;5012072;28;20029;-79
2021/03/08 08:21:20;;;;;;;57.92;23.02;;;0.40;95.90;;;;;;5012289;28;20028;-79
2021/03/08 08:23:56;;;;;;;40.08;18.25;;;0.30;97.20;;;;;;5024586;28;20025;-79
2021/03/08 08:26:22;;;;;;;29.23;14.40;;;0.30;95.50;;;;;;5010186;28;20058;-80
2021/03/08 08:28:49;;;;;;;26.33;12.63;;;0.40;94.10;;;;;;5006940;28;20080;-81
2021/03/08 08:31:15;;;;;;;48.53;21.95;;;0.50;92.90;;;;;;5012919;28;20025;-81
2021/03/08 08:33:41;;;;;;;50.92;21.85;;;0.50;93.40;;;;;;5010378;28;20372;-82
2021/03/08 08:36:16;;;;;;;115.45;43.05;;;0.30;91.00;;;;;;5011222;28;20062;-81
2021/03/08 08:38:55;;;;;;;49.72;21.42;;;0.10;93.30;;;;;;5025955;28;20022;-81
2021/03/08 08:41:29;;;;;;;75.63;32.72;;;0.10;93.70;;;;;;5015222;28;20022;-79
2021/03/08 08:44:07;;;;;;;44.50;21.60;;;0.20;93.80;;;;;;5010808;28;20050;-80
2021/03/08 08:46:33;;;;;;;42.42;20.77;;;0.30;94.30;;;;;;5017472;28;20034;-80
2021/03/08 08:49:03;;;;;;;45.45;18.48;;;0.30;91.40;;;;;;5010292;28;20387;-80
2021/03/08 08:51:50;;;;;;;27.92;14.13;;;0.20;91.00;;;;;;5027219;28;20120;-80
2021/03/08 08:54:28;;;;;;;34.47;15.40;;;0.50;88.30;;;;;;5010195;28;20029;-80
2021/03/08 08:57:10;;;;;;;47.58;19.85;;;1.00;83.30;;;;;;5010754;28;20083;-81
2021/03/08 08:59:48;;;;;;;47.08;20.52;;;1.20;81.40;;;;;;5010957;28;20083;-80
2021/03/08 09:04:43;;;;;;;20.77;9.65;;;1.60;75.10;;;;;;5011898;28;20057;-79
2021/03/08 09:07:19;;;;;;;24.63;13.05;;;1.90;73.00;;;;;;5011273;28;20590;-80
2021/03/08 09:09:49;;;;;;;30.58;13.88;;;2.30;70.80;;;;;;5011877;28;20484;-79
2021/03/08 09:12:36;;;;;;;25.48;12.80;;;2.50;70.20;;;;;;5010646;28;20057;-79
2021/03/08 09:15:13;;;;;;;32.42;13.45;;;2.10;68.60;;;;;;5018362;28;20530;-79
2021/03/08 09:17:51;;;;;;;21.05;10.60;;;1.40;71.20;;;;;;5010014;28;20399;-78
2021/03/08 09:20:20;;;;;;;28.52;15.52;;;0.90;75.70;;;;;;5009706;28;20030;-79
2021/03/08 09:22:49;;;;;;;114.55;39.28;;;0.80;75.40;;;;;;5009205;28;20372;-78
2021/03/08 09:25:29;;;;;;;34.00;16.92;;;0.70;77.50;;;;;;5011584;28;20064;-78
2021/03/08 09:28:03;;;;;;;56.28;28.17;;;0.40;72.40;;;;;;5010922;28;20029;-79
2021/03/08 09:30:36;;;;;;;39.70;20.17;;;0.60;73.90;;;;;;5011890;28;20026;-80
2021/03/08 09:33:06;;;;;;;30.80;15.82;;;0.80;74.30;;;;;;5012005;28;20517;-79
2021/03/08 09:35:39;;;;;;;30.00;13.90;;;1.00;73.60;;;;;;5010391;28;20447;-79
2021/03/08 09:38:27;;;;;;;45.35;19.95;;;1.20;71.60;;;;;;5006490;28;20026;-79
2021/03/08 09:40:55;;;;;;;19.77;9.75;;;1.70;70.60;;;;;;5009651;28;20042;-78
2021/03/08 09:43:32;;;;;;;27.65;14.30;;;1.80;67.80;;;;;;5024665;28;20025;-79
2021/03/08 09:46:16;;;;;;;32.60;13.63;;;1.90;65.70;;;;;;5024565;28;20033;-78
2021/03/08 09:48:44;;;;;;;16.75;9.90;;;1.80;68.90;;;;;;5029405;28;20442;-79
2021/03/08 09:51:15;;;;;;;18.92;10.30;;;1.10;66.70;;;;;;5031106;28;20025;-80
2021/03/08 09:53:50;;;;;;;17.45;9.55;;;0.80;66.10;;;;;;5012535;28;20030;-79
2021/03/08 09:56:21;;;;;;;36.63;17.25;;;0.60;67.30;;;;;;5009309;28;20030;-80
2021/03/08 09:58:57;;;;;;;34.15;14.98;;;0.60;67.50;;;;;;5014686;28;20026;-80
2021/03/08 10:01:23;;;;;;;23.05;11.70;;;0.80;68.10;;;;;;5009793;28;20061;-80
2021/03/08 10:03:49;;;;;;;25.42;11.55;;;1.20;65.80;;;;;;5016004;28;20064;-79
2021/03/08 10:06:28;;;;;;;19.05;10.85;;;1.30;64.00;;;;;;5014739;28;20034;-80
2021/03/08 10:08:55;;;;;;;8.88;6.50;;;1.20;62.00;;;;;;5031236;28;20052;-80
2021/03/08 10:11:26;;;;;;;10.27;5.45;;;1.20;58.20;;;;;;5031080;28;20026;-79
2021/03/08 10:13:53;;;;;;;10.15;6.45;;;1.10;56.30;;;;;;5015879;28;20025;-79
2021/03/08 10:16:29;;;;;;;13.27;7.70;;;1.40;57.10;;;;;;5018289;28;20022;-80
2021/03/08 10:18:55;;;;;;;12.40;6.38;;;1.60;57.70;;;;;;5024569;28;20034;-80
2021/03/08 10:21:22;;;;;;;15.55;7.60;;;1.90;56.80;;;;;;5030400;28;20037;-80
2021/03/08 10:23:48;;;;;;;17.73;7.13;;;2.00;57.60;;;;;;5015596;28;20144;-79
2021/03/08 10:26:16;;;;;;;16.13;9.85;;;1.80;56.60;;;;;;5030863;28;20030;-80
2021/03/08 10:28:49;;;;;;;12.93;6.15;;;1.40;55.30;;;;;;5026952;28;20018;-81
2021/03/08 10:31:24;;;;;;;8.10;5.18;;;1.30;56.30;;;;;;5012159;28;20076;-81
2021/03/08 10:33:51;;;;;;;12.75;6.15;;;1.10;56.70;;;;;;5011664;28;20119;-82
2021/03/08 10:36:19;;;;;;;20.85;10.77;;;0.90;57.10;;;;;;5030449;28;20026;-80
2021/03/08 10:38:51;;;;;;;18.63;8.90;;;0.90;56.90;;;;;;5019004;28;20057;-80
2021/03/08 10:41:20;;;;;;;8.82;4.80;;;1.00;56.40;;;;;;5017659;28;20100;-79
2021/03/08 10:43:46;;;;;;;10.60;7.68;;;1.10;57.20;;;;;;5011199;28;20058;-81
2021/03/08 10:46:12;;;;;;;11.27;5.68;;;1.20;57.50;;;;;;5012912;28;20033;-82
2021/03/08 10:49:06;;;;;;;7.53;4.78;;;1.10;56.50;;;;;;5027540;28;20530;-82
2021/03/08 10:51:33;;;;;;;13.13;5.95;;;1.20;57.80;;;;;;5010873;28;20041;-81
2021/03/08 10:54:02;;;;;;;12.85;8.00;;;1.10;58.00;;;;;;5030445;28;20113;-81
2021/03/08 10:56:29;;;;;;;14.95;7.07;;;0.90;57.50;;;;;;5030111;28;20037;-81
2021/03/08 10:58:56;;;;;;;8.23;4.93;;;1.00;56.40;;;;;;5014852;28;20045;-79
2021/03/08 11:01:23;;;;;;;16.60;8.85;;;1.40;55.40;;;;;;5014127;28;20080;-80
2021/03/08 11:03:49;;;;;;;11.15;5.20;;;1.60;56.00;;;;;;5012820;28;20026;-79
2021/03/08 11:06:17;;;;;;;14.43;6.55;;;1.50;55.90;;;;;;5012790;28;20040;-81
2021/03/08 11:09:00;;;;;;;8.45;3.90;;;1.30;54.90;;;;;;5028212;28;20057;-81
2021/03/08 11:11:43;;;;;;;11.48;6.60;;;1.00;51.90;;;;;;5010496;28;20025;-80
2021/03/08 11:14:09;;;;;;;15.98;8.07;;;1.10;53.20;;;;;;5028592;28;20475;-81
2021/03/08 11:16:35;;;;;;;8.40;4.10;;;1.20;53.60;;;;;;5029185;28;20048;-79
2021/03/08 11:19:21;;;;;;;10.73;5.60;;;1.30;52.20;;;;;;5014079;28;20399;-81
2021/03/08 11:22:03;;;;;;;8.88;5.30;;;1.20;50.80;;;;;;5029593;28;20117;-77
2021/03/08 11:24:31;;;;;;;11.13;5.77;;;1.20;51.60;;;;;;5010859;28;20125;-76
2021/03/08 11:27:17;;;;;;;15.63;6.43;;;1.10;51.30;;;;;;5029896;28;20387;-77
2021/03/08 11:30:10;;;;;;;8.48;5.13;;;1.10;51.40;;;;;;5014550;28;20026;-77
2021/03/08 11:32:38;;;;;;;6.10;4.45;;;1.00;50.70;;;;;;5014638;28;20033;-76
2021/03/08 11:35:05;;;;;;;5.47;3.30;;;1.10;50.80;;;;;;5027902;28;20032;-76
2021/03/08 11:37:31;;;;;;;10.27;4.38;;;1.20;50.50;;;;;;5025616;28;20049;-77
2021/03/08 11:40:06;;;;;;;3.13;2.78;;;1.30;50.60;;;;;;5025019;28;20152;-77
2021/03/08 11:42:33;;;;;;;7.70;4.25;;;1.50;48.00;;;;;;5017692;28;20022;-76
2021/03/08 11:44:59;;;;;;;6.55;4.03;;;1.80;47.70;;;;;;5029386;28;20084;-76
2021/03/08 11:47:24;;;;;;;7.43;4.50;;;2.00;47.50;;;;;;5007158;28;20022;-77
2021/03/08 11:49:50;;;;;;;5.93;3.13;;;2.20;47.60;;;;;;5013526;28;20084;-76
2021/03/08 11:52:16;;;;;;;6.40;4.25;;;1.90;47.70;;;;;;5029899;28;20113;-77
2021/03/08 11:54:42;;;;;;;8.45;4.40;;;1.70;47.80;;;;;;5012063;28;20092;-78
2021/03/08 11:57:10;;;;;;;4.43;2.78;;;1.60;47.70;;;;;;5012876;28;20030;-77
2021/03/08 11:59:36;;;;;;;4.88;4.03;;;1.60;47.90;;;;;;5013358;28;20033;-77
2021/03/08 12:02:02;;;;;;;9.95;5.28;;;1.50;48.60;;;;;;5028551;28;20121;-77
2021/03/08 12:04:28;;;;;;;12.23;5.90;;;1.50;49.50;;;;;;5013235;28;20025;-79
2021/03/08 12:06:53;;;;;;;8.15;5.57;;;1.30;51.20;;;;;;5028720;28;20033;-80
2021/03/08 12:09:20;;;;;;;6.50;4.00;;;1.20;52.60;;;;;;5013783;28;20022;-80
2021/03/08 12:11:46;;;;;;;4.65;3.80;;;1.20;53.10;;;;;;5014353;28;20037;-81
2021/03/08 12:14:12;;;;;;;6.25;3.72;;;1.40;51.90;;;;;;5029657;28;20031;-80
2021/03/08 12:16:38;;;;;;;9.05;4.03;;;1.60;50.90;;;;;;5028619;28;20388;-80
2021/03/08 12:19:04;;;;;;;6.68;3.55;;;1.70;51.10;;;;;;5013873;28;20048;-80
2021/03/08 12:21:30;;;;;;;6.88;3.28;;;1.90;51.40;;;;;;5014263;28;20026;-80
2021/03/08 12:23:57;;;;;;;11.88;6.43;;;1.90;50.20;;;;;;5014181;28;20021;-80
2021/03/08 12:26:23;;;;;;;7.05;4.00;;;1.80;50.00;;;;;;5029344;28;20033;-80
2021/03/08 12:28:48;;;;;;;12.07;6.30;;;1.50;49.60;;;;;;5013988;28;20030;-80
2021/03/08 12:31:16;;;;;;;13.02;6.15;;;1.30;49.30;;;;;;5014134;28;20057;-80
2021/03/08 12:33:42;;;;;;;20.38;9.52;;;1.20;49.70;;;;;;5008473;28;20030;-80
2021/03/08 12:36:08;;;;;;;28.23;12.50;;;1.20;49.50;;;;;;5011616;28;20037;-81
2021/03/08 12:38:35;;;;;;;31.38;12.05;;;1.20;49.30;;;;;;5011686;28;20396;-81
2021/03/08 12:41:01;;;;;;;14.02;6.03;;;1.10;49.50;;;;;;5012009;28;20025;-79
2021/03/08 12:43:27;;;;;;;11.02;6.60;;;1.10;49.30;;;;;;5028287;28;20022;-80
2021/03/08 12:45:53;;;;;;;21.73;11.35;;;1.10;49.40;;;;;;5012857;28;20048;-80
2021/03/08 12:48:19;;;;;;;10.68;6.45;;;1.20;49.30;;;;;;5012729;28;20075;-79
2021/03/08 12:50:44;;;;;;;7.25;3.47;;;1.40;48.70;;;;;;5012072;28;20138;-80
2021/03/08 12:53:11;;;;;;;18.55;8.57;;;1.50;48.50;;;;;;5013167;28;20132;-79